createdAt,value
2023-08-15T00:00:51.191Z,100381.38
2023-08-15T00:03:52.804Z,100390.13
2023-08-15T00:06:54.540Z,100372.28
2023-08-15T00:09:56.213Z,100374.38
2023-08-15T00:12:57.949Z,100372.38
2023-08-15T00:16:00.988Z,100376.66
2023-08-15T00:19:02.734Z,100379.28
2023-08-15T00:22:04.443Z,100383.75
2023-08-15T00:25:06.434Z,100390.06
2023-08-15T00:28:08.106Z,100379.56
2023-08-15T00:31:11.163Z,100379.19
2023-08-15T00:34:12.720Z,100381.34
2023-08-15T00:37:14.390Z,100383.34
2023-08-15T00:40:16.191Z,100374.09
2023-08-15T00:43:17.808Z,100377.06
2023-08-15T00:46:20.958Z,100378.88
2023-08-15T00:49:23.072Z,100376.22
2023-08-15T00:52:24.847Z,100377.16
2023-08-15T00:55:27.346Z,100373.44
2023-08-15T00:58:30.454Z,100373.63
2023-08-15T01:01:34.419Z,100375.03
2023-08-15T01:04:38.670Z,100370.78
2023-08-15T01:07:40.391Z,100361.69
2023-08-15T01:10:43.755Z,100363.50
2023-08-15T01:13:54.106Z,100365.31
2023-08-15T01:16:58.292Z,100360.97
2023-08-15T01:20:05.258Z,100363.38
2023-08-15T01:23:08.361Z,100365.81
2023-08-15T01:26:11.421Z,100367.75
2023-08-15T01:29:13.132Z,100359.38
2023-08-15T01:32:28.114Z,100369.97
2023-08-15T01:35:34.552Z,100367.91
2023-08-15T01:38:40.937Z,100362.84
2023-08-15T01:41:46.535Z,100368.56
2023-08-15T01:44:49.087Z,100349.94
2023-08-15T01:47:52.503Z,100362.19
2023-08-15T01:50:54.245Z,100362.66
2023-08-15T01:53:55.992Z,100368.56
2023-08-15T01:56:59.082Z,100362.84
2023-08-15T02:00:00.739Z,100366.31
2023-08-15T02:03:02.482Z,100365.19
2023-08-15T02:06:04.691Z,100361.53
2023-08-15T02:09:06.436Z,100357.84
2023-08-15T02:12:09.704Z,100361.66
2023-08-15T02:15:11.387Z,100364.38
2023-08-15T02:18:13.125Z,100357.75
2023-08-15T02:21:14.789Z,100360.34
2023-08-15T02:24:16.474Z,100356.81
2023-08-15T02:27:19.701Z,100363.28
2023-08-15T02:30:21.548Z,100363.50
2023-08-15T02:33:23.265Z,100364.06
2023-08-15T02:36:24.973Z,100363.06
2023-08-15T02:39:26.622Z,100368.59
2023-08-15T02:42:29.671Z,100371.06
2023-08-15T02:45:31.622Z,100364.84
2023-08-15T02:48:33.302Z,100357.31
2023-08-15T02:51:34.993Z,100367.69
2023-08-15T02:54:36.654Z,100363.22
2023-08-15T02:57:39.766Z,100365.66
2023-08-15T03:00:41.257Z,100370.56
2023-08-15T03:03:42.972Z,100370.97
2023-08-15T03:06:44.673Z,100369.03
2023-08-15T03:09:46.434Z,100368.59
2023-08-15T03:12:49.430Z,100369.75
2023-08-15T03:15:52.894Z,100365.06
2023-08-15T03:18:54.674Z,100365.94
2023-08-15T03:21:57.768Z,100366.66
2023-08-15T03:24:59.315Z,100356.97
2023-08-15T03:28:02.194Z,100365.75
2023-08-15T03:31:08.746Z,100364.69
2023-08-15T03:34:10.538Z,100363.97
2023-08-15T03:37:12.286Z,100360.22
2023-08-15T03:40:14.228Z,100358.97
2023-08-15T03:43:17.304Z,100364.47
2023-08-15T03:46:19.512Z,100362.06
2023-08-15T03:49:21.299Z,100357.84
2023-08-15T03:52:23.011Z,100351.38
2023-08-15T03:55:24.706Z,100356.19
2023-08-15T03:58:27.819Z,100354.81
2023-08-15T04:01:29.284Z,100362.38
2023-08-15T04:04:30.781Z,100362.44
2023-08-15T04:07:32.529Z,100362.88
2023-08-15T04:10:35.246Z,100373.94
2023-08-15T04:13:39.792Z,100365.81
2023-08-15T04:16:41.825Z,100372.38
2023-08-15T04:19:44.904Z,100366.22
2023-08-15T04:22:46.609Z,100372.19
2023-08-15T04:25:49.742Z,100367.25
2023-08-15T04:28:53.874Z,100379.97
2023-08-15T04:31:55.720Z,100380.75
2023-08-15T04:34:57.494Z,100368.19
2023-08-15T04:37:59.198Z,100375.16
2023-08-15T04:41:00.898Z,100379.06
2023-08-15T04:44:04.148Z,100376.75
2023-08-15T04:47:06.161Z,100365.09
2023-08-15T04:50:08.978Z,100381.75
2023-08-15T04:53:10.676Z,100376.66
2023-08-15T04:56:12.334Z,100384.22
2023-08-15T04:59:15.428Z,100383.00
2023-08-15T05:02:16.867Z,100376.47
2023-08-15T05:05:18.445Z,100391.53
2023-08-15T05:08:20.149Z,100385.59
2023-08-15T05:11:23.170Z,100389.38
2023-08-15T05:14:27.152Z,100391.34
2023-08-15T05:17:31.877Z,100397.56
2023-08-15T05:20:33.872Z,100401.00
2023-08-15T05:23:35.505Z,100386.94
2023-08-15T05:26:37.270Z,100388.34
2023-08-15T05:29:58.920Z,100401.09
2023-08-15T05:33:01.380Z,100405.22
2023-08-15T05:36:03.274Z,100399.97
2023-08-15T05:39:05.203Z,100404.44
2023-08-15T05:42:07.137Z,100404.28
2023-08-15T05:45:11.107Z,100403.47
2023-08-15T05:48:12.850Z,100408.06
2023-08-15T05:51:14.572Z,100413.19
2023-08-15T05:54:16.280Z,100402.53
2023-08-15T05:57:17.942Z,100403.13
2023-08-15T06:00:21.095Z,100405.44
2023-08-15T06:03:39.756Z,100393.72
2023-08-15T06:06:45.714Z,100406.47
2023-08-15T06:09:47.378Z,100397.28
2023-08-15T06:12:49.075Z,100400.50
2023-08-15T06:15:52.119Z,100404.53
2023-08-15T06:18:53.605Z,100408.03
2023-08-15T06:21:55.279Z,100410.41
2023-08-15T06:24:57.185Z,100405.19
2023-08-15T06:27:58.847Z,100396.72
2023-08-15T06:31:01.897Z,100393.44
2023-08-15T06:34:03.974Z,100394.22
2023-08-15T06:37:05.726Z,100397.72
2023-08-15T06:40:08.900Z,100394.06
2023-08-15T06:43:10.593Z,100392.16
2023-08-15T06:46:13.781Z,100396.91
2023-08-15T06:49:15.483Z,100393.72
2023-08-15T06:52:17.133Z,100382.94
2023-08-15T06:55:18.829Z,100393.53
2023-08-15T06:58:20.947Z,100395.00
2023-08-15T07:01:24.064Z,100394.78
2023-08-15T07:04:25.828Z,100392.72
2023-08-15T07:07:27.494Z,100388.97
2023-08-15T07:10:29.134Z,100389.50
2023-08-15T07:13:30.819Z,100394.06
2023-08-15T07:16:33.967Z,100390.06
2023-08-15T07:19:35.689Z,100392.75
2023-08-15T07:22:37.374Z,100408.28
2023-08-15T07:25:39.032Z,100401.06
2023-08-15T07:28:40.772Z,100401.22
2023-08-15T07:31:43.823Z,100407.00
2023-08-15T07:34:45.517Z,100403.13
2023-08-15T07:37:47.199Z,100407.97
2023-08-15T07:40:48.852Z,100406.34
2023-08-15T07:43:50.523Z,100403.53
2023-08-15T07:46:53.555Z,100400.69
2023-08-15T07:50:13.546Z,100387.94
2023-08-15T07:53:15.245Z,100397.75
2023-08-15T07:56:16.972Z,100400.72
2023-08-15T07:59:18.671Z,100403.13
2023-08-15T08:02:21.912Z,100386.31
2023-08-15T08:05:24.031Z,100378.97
2023-08-15T08:08:25.789Z,100375.72
2023-08-15T08:11:27.479Z,100378.38
2023-08-15T08:14:29.387Z,100369.97
2023-08-15T08:17:32.526Z,100375.09
2023-08-15T08:20:34.237Z,100382.50
2023-08-15T08:23:35.866Z,100377.59
2023-08-15T08:26:37.519Z,100375.81
2023-08-15T08:29:39.175Z,100373.88
2023-08-15T08:32:42.355Z,100377.44
2023-08-15T08:35:44.110Z,100370.25
2023-08-15T08:38:45.783Z,100368.88
2023-08-15T08:41:47.756Z,100367.31
2023-08-15T08:44:50.296Z,100365.09
2023-08-15T08:47:53.759Z,100374.81
2023-08-15T08:50:57.008Z,100369.69
2023-08-15T08:53:58.847Z,100375.16
2023-08-15T08:57:01.886Z,100371.16
2023-08-15T09:00:04.211Z,100366.34
2023-08-15T09:03:08.441Z,100373.56
2023-08-15T09:06:10.413Z,100371.81
2023-08-15T09:09:13.370Z,100368.47
2023-08-15T09:12:33.342Z,100371.63
2023-08-15T09:15:35.623Z,100375.63
2023-08-15T09:18:38.763Z,100374.25
2023-08-15T09:21:40.775Z,100376.38
2023-08-15T09:24:45.270Z,100380.09
2023-08-15T09:27:47.498Z,100373.78
2023-08-15T09:30:53.345Z,100378.88
2023-08-15T09:33:57.000Z,100379.63
2023-08-15T09:36:59.075Z,100376.75
2023-08-15T09:40:01.835Z,100367.06
2023-08-15T09:43:04.006Z,100389.72
2023-08-15T09:46:05.757Z,100384.13
2023-08-15T09:49:09.380Z,100396.41
2023-08-15T09:52:12.111Z,100398.03
2023-08-15T09:55:15.446Z,100393.16
2023-08-15T09:58:17.124Z,100401.41
2023-08-15T10:01:20.284Z,100398.41
2023-08-15T10:04:24.185Z,100389.91
2023-08-15T10:07:28.307Z,100384.31
2023-08-15T10:10:34.021Z,100382.91
2023-08-15T10:13:37.903Z,100378.09
2023-08-15T10:16:39.797Z,100365.44
2023-08-15T10:19:46.365Z,100365.78
2023-08-15T10:22:50.494Z,100351.66
2023-08-15T10:25:53.658Z,100355.00
2023-08-15T10:28:57.420Z,100351.28
2023-08-15T10:31:59.739Z,100349.69
2023-08-15T10:35:04.414Z,100353.22
2023-08-15T10:38:14.322Z,100356.97
2023-08-15T10:41:17.502Z,100354.47
2023-08-15T10:44:19.253Z,100352.31
2023-08-15T10:47:24.310Z,100349.84
2023-08-15T10:50:27.692Z,100350.19
2023-08-15T10:53:29.400Z,100353.66
2023-08-15T10:56:32.941Z,100351.56
2023-08-15T10:59:37.146Z,100347.91
2023-08-15T11:02:38.967Z,100354.81
2023-08-15T11:05:42.185Z,100343.16
2023-08-15T11:08:45.009Z,100342.88
2023-08-15T11:11:47.043Z,100335.25
2023-08-15T11:14:49.854Z,100334.81
2023-08-15T11:17:51.643Z,100342.31
2023-08-15T11:20:54.853Z,100344.66
2023-08-15T11:23:59.305Z,100347.81
2023-08-15T11:27:00.994Z,100346.38
2023-08-15T11:30:02.700Z,100343.50
2023-08-15T11:33:05.087Z,100339.50
2023-08-15T11:36:08.964Z,100344.00
2023-08-15T11:39:14.282Z,100335.34
2023-08-15T11:42:16.270Z,100335.81
2023-08-15T11:45:19.898Z,100325.94
2023-08-15T11:48:22.018Z,100331.53
2023-08-15T11:51:25.026Z,100326.38
2023-08-15T11:54:27.092Z,100311.88
2023-08-15T11:57:35.025Z,100315.63
2023-08-15T12:03:40.817Z,100311.44
2023-08-15T12:06:43.941Z,100314.34
2023-08-15T12:09:45.620Z,100308.97
2023-08-15T12:12:48.102Z,100303.69
2023-08-15T12:15:49.803Z,100312.75
2023-08-15T12:18:51.470Z,100309.19
2023-08-15T12:21:54.509Z,100307.72
2023-08-15T12:24:56.576Z,100305.56
2023-08-15T12:27:58.193Z,100301.88
2023-08-15T12:30:59.944Z,100299.56
2023-08-15T12:34:01.648Z,100299.56
2023-08-15T12:37:04.825Z,100294.06
2023-08-15T12:40:14.838Z,100281.47
2023-08-15T12:43:23.590Z,100282.06
2023-08-15T12:46:25.300Z,100277.56
2023-08-15T12:49:26.957Z,100272.53
2023-08-15T12:52:30.186Z,100269.44
2023-08-15T12:55:31.868Z,100267.88
2023-08-15T12:58:33.562Z,100257.47
2023-08-15T13:01:35.692Z,100252.41
2023-08-15T13:04:37.490Z,100250.53
2023-08-15T13:07:40.603Z,100257.47
2023-08-15T13:10:44.133Z,100255.00
2023-08-15T13:13:45.975Z,100253.56
2023-08-15T13:16:47.918Z,100254.56
2023-08-15T13:19:49.581Z,100263.97
2023-08-15T13:22:52.669Z,100251.53
2023-08-15T13:25:54.389Z,100248.06
2023-08-15T13:28:56.034Z,100244.72
2023-08-15T13:31:57.715Z,100247.63
2023-08-15T13:34:59.420Z,100252.09
2023-08-15T13:38:02.487Z,100248.78
2023-08-15T13:41:04.928Z,100233.44
2023-08-15T13:44:06.955Z,100242.13
2023-08-15T13:47:08.685Z,100240.22
2023-08-15T13:50:10.874Z,100237.78
2023-08-15T13:53:13.993Z,100240.69
2023-08-15T13:56:16.692Z,100239.66
2023-08-15T13:59:18.321Z,100239.09
2023-08-15T14:02:20.529Z,100238.50
2023-08-15T14:05:22.770Z,100229.78
2023-08-15T14:08:26.561Z,100223.00
2023-08-15T14:11:28.343Z,100220.50
2023-08-15T14:14:30.059Z,100215.69
2023-08-15T14:17:31.981Z,100213.22
2023-08-15T14:20:35.729Z,100214.56
2023-08-15T14:23:38.974Z,100214.13
2023-08-15T14:26:40.857Z,100209.50
2023-08-15T14:29:42.651Z,100205.06
2023-08-15T14:32:44.447Z,100208.91
2023-08-15T14:35:46.190Z,100199.63
2023-08-15T14:38:50.563Z,100197.44
2023-08-15T14:41:52.444Z,100206.53
2023-08-15T14:44:55.088Z,100199.63
2023-08-15T14:47:56.686Z,100204.19
2023-08-15T14:50:58.387Z,100205.44
2023-08-15T14:54:01.489Z,100205.78
2023-08-15T14:57:03.177Z,100210.38
2023-08-15T15:00:06.267Z,100217.53
2023-08-15T15:03:08.006Z,100204.03
2023-08-15T15:06:09.748Z,100205.50
2023-08-15T15:09:12.816Z,100202.47
2023-08-15T15:12:14.513Z,100205.47
2023-08-15T15:15:16.224Z,100196.22
2023-08-15T15:18:17.988Z,100186.97
2023-08-15T15:21:19.662Z,100197.56
2023-08-15T15:24:23.142Z,100189.72
2023-08-15T15:27:24.887Z,100186.81
2023-08-15T15:30:26.791Z,100187.88
2023-08-15T15:33:29.030Z,100194.50
2023-08-15T15:36:30.733Z,100190.59
2023-08-15T15:39:34.134Z,100198.84
2023-08-15T15:42:35.799Z,100182.19
2023-08-15T15:45:37.802Z,100184.69
2023-08-15T15:48:39.615Z,100186.69
2023-08-15T15:51:41.339Z,100191.13
2023-08-15T15:54:44.344Z,100182.91
2023-08-15T15:57:46.018Z,100187.53
2023-08-15T16:00:47.670Z,100185.94
2023-08-15T16:03:49.414Z,100196.59
2023-08-15T16:06:51.219Z,100188.09
2023-08-15T16:09:54.222Z,100187.94
2023-08-15T16:12:55.863Z,100194.16
2023-08-15T16:15:57.541Z,100195.78
2023-08-15T16:18:59.216Z,100205.16
2023-08-15T16:22:00.918Z,100203.84
2023-08-15T16:25:04.577Z,100204.69
2023-08-15T16:28:06.889Z,100205.69
2023-08-15T16:31:08.620Z,100211.69
2023-08-15T16:34:10.360Z,100202.84
2023-08-15T16:37:12.107Z,100197.34
2023-08-15T16:40:15.365Z,100199.88
2023-08-15T16:43:18.236Z,100204.19
2023-08-15T16:46:19.998Z,100213.97
2023-08-15T16:49:22.204Z,100219.63
2023-08-15T16:52:24.906Z,100231.66
2023-08-15T16:55:29.794Z,100223.94
2023-08-15T16:58:31.996Z,100214.13
2023-08-15T17:01:33.712Z,100192.91
2023-08-15T17:04:35.432Z,100172.31
2023-08-15T17:07:38.667Z,100174.78
2023-08-15T17:10:41.763Z,100188.88
2023-08-15T17:13:46.886Z,100201.88
2023-08-15T17:16:50.053Z,100209.13
2023-08-15T17:19:51.626Z,100210.09
2023-08-15T17:22:53.337Z,100216.97
2023-08-15T17:26:00.575Z,100219.31
2023-08-15T17:29:05.295Z,100219.19
2023-08-15T17:32:07.553Z,100227.19
2023-08-15T17:35:09.553Z,100220.34
2023-08-15T17:38:13.188Z,100222.91
2023-08-15T17:41:16.956Z,100217.72
2023-08-15T17:44:18.659Z,100218.34
2023-08-15T17:47:20.383Z,100213.00
2023-08-15T17:50:22.105Z,100211.97
2023-08-15T17:53:23.824Z,100213.19
2023-08-15T17:56:27.474Z,100221.13
2023-08-15T17:59:29.966Z,100228.19
2023-08-15T18:02:32.745Z,100234.66
2023-08-15T18:05:35.079Z,100237.47
2023-08-15T18:08:37.813Z,100234.31
2023-08-15T18:11:41.656Z,100236.34
2023-08-15T18:14:43.369Z,100239.13
2023-08-15T18:17:45.117Z,100237.19
2023-08-15T18:20:47.832Z,100236.66
2023-08-15T18:23:50.018Z,100234.75
2023-08-15T18:26:53.165Z,100234.34
2023-08-15T18:29:55.366Z,100230.97
2023-08-15T18:32:57.694Z,100225.75
2023-08-15T18:35:59.964Z,100224.13
2023-08-15T18:39:02.201Z,100196.41
2023-08-15T18:42:06.719Z,100191.38
2023-08-15T18:45:09.581Z,100188.34
2023-08-15T18:48:12.151Z,100203.75
2023-08-15T18:51:13.953Z,100203.53
2023-08-15T18:54:16.612Z,100201.34
2023-08-15T18:57:20.195Z,100196.84
2023-08-15T19:00:22.912Z,100214.97
2023-08-15T19:03:26.705Z,100220.13
2023-08-15T19:06:29.007Z,100233.94
2023-08-15T19:09:31.729Z,100236.88
2023-08-15T19:12:36.082Z,100251.38
2023-08-15T19:15:39.389Z,100257.50
2023-08-15T19:18:42.066Z,100266.06
2023-08-15T19:21:44.548Z,100264.66
2023-08-15T19:24:46.667Z,100252.22
2023-08-15T19:27:50.582Z,100265.72
2023-08-15T19:31:01.584Z,100269.84
2023-08-15T19:34:04.073Z,100271.03
2023-08-15T19:37:06.285Z,100274.38
2023-08-15T19:40:09.901Z,100277.91
2023-08-15T19:43:13.698Z,100285.19
2023-08-15T19:46:16.005Z,100280.75
2023-08-15T19:49:18.189Z,100289.94
2023-08-15T19:52:21.203Z,100283.75
2023-08-15T19:55:23.841Z,100277.78
2023-08-15T19:58:27.358Z,100284.25
2023-08-15T20:01:29.535Z,100288.91
2023-08-15T20:04:31.795Z,100286.41
2023-08-15T20:07:35.814Z,100293.22
2023-08-15T20:10:40.144Z,100290.13
2023-08-15T20:13:44.166Z,100291.47
2023-08-15T20:16:46.554Z,100287.94
2023-08-15T20:19:48.604Z,100292.56
2023-08-15T20:22:51.044Z,100290.78
2023-08-15T20:25:53.247Z,100292.72
2023-08-15T20:28:56.316Z,100291.88
2023-08-15T20:31:58.161Z,100286.59
2023-08-15T20:35:00.205Z,100283.34
2023-08-15T20:38:02.314Z,100273.31
2023-08-15T20:41:04.500Z,100265.56
2023-08-15T20:44:08.160Z,100261.59
2023-08-15T20:47:09.886Z,100260.16
2023-08-15T20:50:11.677Z,100267.59
2023-08-15T20:53:13.404Z,100276.75
2023-08-15T20:56:15.081Z,100287.31
2023-08-15T20:59:18.169Z,100288.19
2023-08-15T21:02:19.795Z,100286.34
2023-08-15T21:05:21.482Z,100292.22
2023-08-15T21:08:23.148Z,100295.34
2023-08-15T21:11:24.836Z,100300.66
2023-08-15T21:14:27.982Z,100310.84
2023-08-15T21:17:29.607Z,100302.97
2023-08-15T21:20:31.368Z,100312.28
2023-08-15T21:23:33.046Z,100316.34
2023-08-15T21:26:35.958Z,100316.03
2023-08-15T21:29:40.208Z,100318.06
2023-08-15T21:32:41.945Z,100307.53
2023-08-15T21:35:43.851Z,100306.09
2023-08-15T21:38:45.591Z,100312.28
2023-08-15T21:41:47.297Z,100310.13
2023-08-15T21:44:50.392Z,100319.13
2023-08-15T21:47:51.959Z,100322.31
2023-08-15T21:50:53.626Z,100318.56
2023-08-15T21:53:55.325Z,100313.34
2023-08-15T21:57:03.643Z,100305.41
2023-08-15T22:00:08.147Z,100302.69
2023-08-15T22:03:10.103Z,100307.75
2023-08-15T22:06:11.920Z,100307.31
2023-08-15T22:09:13.651Z,100308.50
2023-08-15T22:12:15.333Z,100310.84
2023-08-15T22:15:19.054Z,100309.19
2023-08-15T22:18:21.867Z,100312.34
2023-08-15T22:21:23.881Z,100319.00
2023-08-15T22:24:25.569Z,100317.34
2023-08-15T22:27:27.305Z,100312.06
2023-08-15T22:30:30.718Z,100312.25
2023-08-15T22:33:32.453Z,100309.53
2023-08-15T22:36:34.124Z,100300.88
2023-08-15T22:39:35.806Z,100310.84
2023-08-15T22:42:37.455Z,100316.28
2023-08-15T22:45:40.539Z,100308.94
2023-08-15T22:48:42.054Z,100304.47
2023-08-15T22:51:43.565Z,100296.16
2023-08-15T22:54:45.214Z,100289.59
2023-08-15T22:57:46.931Z,100288.81
2023-08-15T23:00:55.000Z,100289.31
2023-08-15T23:03:56.768Z,100281.19
2023-08-15T23:06:58.464Z,100278.69
2023-08-15T23:10:00.175Z,100273.06
2023-08-15T23:13:01.838Z,100266.81
2023-08-15T23:16:05.358Z,100273.38
2023-08-15T23:19:07.018Z,100270.03
2023-08-15T23:22:08.665Z,100269.09
2023-08-15T23:25:10.321Z,100275.81
2023-08-15T23:28:12.356Z,100286.81
2023-08-15T23:31:15.424Z,100277.63
2023-08-15T23:34:17.551Z,100288.47
2023-08-15T23:37:19.283Z,100279.94
2023-08-15T23:40:20.963Z,100287.19
2023-08-15T23:43:22.697Z,100284.78
2023-08-15T23:46:25.880Z,100284.13
2023-08-15T23:49:27.377Z,100273.22
2023-08-15T23:52:28.817Z,100272.53
2023-08-15T23:55:30.496Z,100276.41
2023-08-15T23:58:32.179Z,100270.06
